sensor_id;sensor_type;location;lat;lon;timestamp;pressure;altitude;pressure_sealevel;temperature;humidity
62011;BME280;47967;51.756;10.174;2023-04-26T04:00:48;99854.06;;;-0.60;87.75
62011;BME280;47967;51.756;10.174;2023-04-26T04:04:51;99853.59;;;-0.54;88.00
62011;BME280;47967;51.756;10.174;2023-04-26T04:08:54;99844.28;;;-0.48;87.98
62011;BME280;47967;51.756;10.174;2023-04-26T04:12:57;99850.16;;;-0.44;87.68
62011;BME280;47967;51.756;10.174;2023-04-26T04:17:01;99852.75;;;-0.33;87.74
62011;BME280;47967;51.756;10.174;2023-04-26T04:21:04;99850.38;;;-0.15;87.50
62011;BME280;47967;51.756;10.174;2023-04-26T04:25:08;99853.41;;;-0.20;87.59
62011;BME280;47967;51.756;10.174;2023-04-26T04:29:13;99851.28;;;-0.26;87.17
62011;BME280;47967;51.756;10.174;2023-04-26T04:33:18;99853.81;;;-0.24;86.99
62011;BME280;47967;51.756;10.174;2023-04-26T04:37:21;99856.91;;;-0.19;86.46
62011;BME280;47967;51.756;10.174;2023-04-26T04:41:24;99859.19;;;-0.14;86.37
62011;BME280;47967;51.756;10.174;2023-04-26T04:45:26;99873.63;;;-0.07;86.39
62011;BME280;47967;51.756;10.174;2023-04-26T04:49:32;99856.91;;;0.02;85.99
62011;BME280;47967;51.756;10.174;2023-04-26T04:53:35;99863.91;;;0.03;85.78
62011;BME280;47967;51.756;10.174;2023-04-26T04:57:38;99863.84;;;0.14;85.62
62011;BME280;47967;51.756;10.174;2023-04-26T05:01:44;99869.41;;;0.11;85.52
62011;BME280;47967;51.756;10.174;2023-04-26T05:05:49;99866.63;;;0.13;85.53
62011;BME280;47967;51.756;10.174;2023-04-26T05:09:53;99870.69;;;0.17;85.61
62011;BME280;47967;51.756;10.174;2023-04-26T05:13:56;99879.41;;;0.29;85.70
62011;BME280;47967;51.756;10.174;2023-04-26T05:17:59;99888.66;;;0.56;85.47
62011;BME280;47967;51.756;10.174;2023-04-26T05:22:03;99884.28;;;0.76;85.18
62011;BME280;47967;51.756;10.174;2023-04-26T05:26:06;99886.31;;;1.03;85.14
62011;BME280;47967;51.756;10.174;2023-04-26T05:30:26;99888.88;;;1.24;84.40
62011;BME280;47967;51.756;10.174;2023-04-26T05:34:47;99889.44;;;1.38;83.52
62011;BME280;47967;51.756;10.174;2023-04-26T05:38:52;99896.91;;;1.54;82.78
62011;BME280;47967;51.756;10.174;2023-04-26T05:42:54;99896.22;;;1.62;82.52
62011;BME280;47967;51.756;10.174;2023-04-26T05:46:57;99899.16;;;1.78;82.22
62011;BME280;47967;51.756;10.174;2023-04-26T05:51:01;99898.44;;;2.05;82.24
62011;BME280;47967;51.756;10.174;2023-04-26T05:55:07;99902.34;;;2.21;81.89
62011;BME280;47967;51.756;10.174;2023-04-26T05:59:10;99907.34;;;2.44;81.46
62011;BME280;47967;51.756;10.174;2023-04-26T06:03:14;99906.44;;;2.72;81.48
62011;BME280;47967;51.756;10.174;2023-04-26T06:07:17;99896.81;;;2.90;80.40
62011;BME280;47967;51.756;10.174;2023-04-26T06:11:22;99899.56;;;3.08;80.06
62011;BME280;47967;51.756;10.174;2023-04-26T06:15:25;99895.53;;;3.22;80.16
62011;BME280;47967;51.756;10.174;2023-04-26T06:19:28;99898.09;;;3.41;79.17
62011;BME280;47967;51.756;10.174;2023-04-26T06:23:31;99903.53;;;3.67;78.93
62011;BME280;47967;51.756;10.174;2023-04-26T06:27:35;99905.72;;;3.90;78.43
62011;BME280;47967;51.756;10.174;2023-04-26T06:31:39;99901.03;;;4.55;77.83
62011;BME280;47967;51.756;10.174;2023-04-26T06:35:42;99904.09;;;5.03;76.40
62011;BME280;47967;51.756;10.174;2023-04-26T06:39:46;99907.78;;;5.44;73.96
62011;BME280;47967;51.756;10.174;2023-04-26T06:43:50;99907.19;;;5.84;72.07
62011;BME280;47967;51.756;10.174;2023-04-26T06:47:55;99908.56;;;6.04;71.58
62011;BME280;47967;51.756;10.174;2023-04-26T06:51:58;99923.97;;;6.35;70.47
62011;BME280;47967;51.756;10.174;2023-04-26T06:56:02;99911.47;;;6.92;68.30
62011;BME280;47967;51.756;10.174;2023-04-26T07:00:07;99912.16;;;7.57;66.08
62011;BME280;47967;51.756;10.174;2023-04-26T07:04:11;99919.69;;;7.62;65.31
62011;BME280;47967;51.756;10.174;2023-04-26T07:08:15;99918.97;;;7.36;65.35
62011;BME280;47967;51.756;10.174;2023-04-26T07:12:17;99918.53;;;7.25;65.21
62011;BME280;47967;51.756;10.174;2023-04-26T07:16:21;99924.97;;;7.15;64.73
62011;BME280;47967;51.756;10.174;2023-04-26T07:20:24;99925.41;;;7.59;64.39
62011;BME280;47967;51.756;10.174;2023-04-26T07:24:27;99920.09;;;7.74;61.85
62011;BME280;47967;51.756;10.174;2023-04-26T07:28:29;99921.19;;;7.33;61.45
62011;BME280;47967;51.756;10.174;2023-04-26T07:32:34;99930.72;;;6.96;62.87
62011;BME280;47967;51.756;10.174;2023-04-26T07:36:36;99930.25;;;7.32;62.64
62011;BME280;47967;51.756;10.174;2023-04-26T07:40:39;99931.28;;;7.54;62.05
62011;BME280;47967;51.756;10.174;2023-04-26T07:44:43;99922.03;;;8.11;61.08
62011;BME280;47967;51.756;10.174;2023-04-26T07:48:47;99922.34;;;8.55;58.30
62011;BME280;47967;51.756;10.174;2023-04-26T07:52:49;99923.66;;;8.59;58.73
62011;BME280;47967;51.756;10.174;2023-04-26T07:56:52;99923.13;;;8.40;57.43
62011;BME280;47967;51.756;10.174;2023-04-26T08:00:55;99922.72;;;8.67;56.80
62011;BME280;47967;51.756;10.174;2023-04-26T08:04:59;99919.41;;;8.94;54.30
62011;BME280;47967;51.756;10.174;2023-04-26T08:09:02;99909.78;;;9.52;54.19
62011;BME280;47967;51.756;10.174;2023-04-26T08:13:05;99925.91;;;9.15;53.83
62011;BME280;47967;51.756;10.174;2023-04-26T08:17:08;99924.97;;;9.08;54.42
62011;BME280;47967;51.756;10.174;2023-04-26T08:21:12;99925.28;;;8.45;55.48
62011;BME280;47967;51.756;10.174;2023-04-26T08:25:15;99934.31;;;8.29;56.16
62011;BME280;47967;51.756;10.174;2023-04-26T08:29:18;99931.63;;;8.52;54.92
62011;BME280;47967;51.756;10.174;2023-04-26T08:33:21;99924.13;;;8.39;54.87
62011;BME280;47967;51.756;10.174;2023-04-26T08:37:25;99923.56;;;8.67;53.51
62011;BME280;47967;51.756;10.174;2023-04-26T08:41:34;99927.66;;;8.40;54.27
62011;BME280;47967;51.756;10.174;2023-04-26T08:45:39;99918.94;;;8.61;53.46
62011;BME280;47967;51.756;10.174;2023-04-26T08:49:46;99938.50;;;8.55;54.53
62011;BME280;47967;51.756;10.174;2023-04-26T08:53:52;99919.94;;;8.22;54.17
62011;BME280;47967;51.756;10.174;2023-04-26T08:57:55;99921.44;;;8.77;53.49
62011;BME280;47967;51.756;10.174;2023-04-26T09:01:58;99935.16;;;8.06;53.82
62011;BME280;47967;51.756;10.174;2023-04-26T09:06:05;99932.00;;;7.79;54.59
62011;BME280;47967;51.756;10.174;2023-04-26T09:10:11;99924.72;;;8.11;54.20
62011;BME280;47967;51.756;10.174;2023-04-26T09:14:14;99932.13;;;7.86;54.09
62011;BME280;47967;51.756;10.174;2023-04-26T09:18:18;99933.66;;;7.80;53.78
62011;BME280;47967;51.756;10.174;2023-04-26T09:22:31;99929.97;;;8.28;54.34
62011;BME280;47967;51.756;10.174;2023-04-26T09:26:35;99938.63;;;8.76;52.43
62011;BME280;47967;51.756;10.174;2023-04-26T09:30:38;99940.47;;;9.21;50.02
62011;BME280;47967;51.756;10.174;2023-04-26T09:34:44;99926.03;;;9.43;50.18
62011;BME280;47967;51.756;10.174;2023-04-26T09:38:47;99936.88;;;9.65;49.13
62011;BME280;47967;51.756;10.174;2023-04-26T09:43:03;99934.53;;;9.10;48.55
62011;BME280;47967;51.756;10.174;2023-04-26T09:47:07;99927.03;;;9.57;50.27
62011;BME280;47967;51.756;10.174;2023-04-26T09:51:10;99937.81;;;9.06;49.88
62011;BME280;47967;51.756;10.174;2023-04-26T09:55:25;99937.84;;;9.42;50.69
62011;BME280;47967;51.756;10.174;2023-04-26T09:59:41;99936.22;;;8.96;49.79
62011;BME280;47967;51.756;10.174;2023-04-26T10:03:45;99927.44;;;9.76;49.49
62011;BME280;47967;51.756;10.174;2023-04-26T10:07:49;99939.94;;;9.99;49.48
62011;BME280;47967;51.756;10.174;2023-04-26T10:11:52;99933.19;;;10.09;47.95
62011;BME280;47967;51.756;10.174;2023-04-26T10:15:56;99931.00;;;9.98;49.31
62011;BME280;47967;51.756;10.174;2023-04-26T10:19:59;99940.34;;;10.67;48.99
62011;BME280;47967;51.756;10.174;2023-04-26T10:24:06;99919.47;;;10.54;45.86
62011;BME280;47967;51.756;10.174;2023-04-26T10:28:09;99920.44;;;11.03;46.61
62011;BME280;47967;51.756;10.174;2023-04-26T10:32:13;99935.47;;;10.34;47.61
62011;BME280;47967;51.756;10.174;2023-04-26T10:36:18;99933.22;;;9.94;48.19
62011;BME280;47967;51.756;10.174;2023-04-26T10:40:22;99937.88;;;10.44;49.40
62011;BME280;47967;51.756;10.174;2023-04-26T10:44:39;99922.63;;;10.86;47.02
62011;BME280;47967;51.756;10.174;2023-04-26T10:48:43;99923.66;;;10.57;46.27
62011;BME280;47967;51.756;10.174;2023-04-26T10:53:04;99917.31;;;11.07;44.78
62011;BME280;47967;51.756;10.174;2023-04-26T10:57:07;99926.63;;;10.69;46.38
62011;BME280;47967;51.756;10.174;2023-04-26T11:01:15;99922.41;;;9.88;45.36
62011;BME280;47967;51.756;10.174;2023-04-26T11:05:36;99921.16;;;9.69;46.79
62011;BME280;47967;51.756;10.174;2023-04-26T11:09:40;99929.00;;;9.85;47.31
62011;BME280;47967;51.756;10.174;2023-04-26T11:13:49;99928.50;;;9.97;47.90
62011;BME280;47967;51.756;10.174;2023-04-26T11:17:51;99926.31;;;9.85;46.26
62011;BME280;47967;51.756;10.174;2023-04-26T11:21:55;99923.88;;;10.12;47.26
62011;BME280;47967;51.756;10.174;2023-04-26T11:25:58;99931.69;;;10.07;46.43
62011;BME280;47967;51.756;10.174;2023-04-26T11:30:04;99940.69;;;9.92;45.63
62011;BME280;47967;51.756;10.174;2023-04-26T11:34:06;99938.63;;;9.94;46.16
62011;BME280;47967;51.756;10.174;2023-04-26T11:38:10;99934.19;;;9.87;45.64
62011;BME280;47967;51.756;10.174;2023-04-26T11:42:13;99913.69;;;10.36;45.94
62011;BME280;47967;51.756;10.174;2023-04-26T11:46:19;99918.53;;;10.19;46.19
62011;BME280;47967;51.756;10.174;2023-04-26T11:50:22;99923.94;;;10.69;46.01
62011;BME280;47967;51.756;10.174;2023-04-26T11:54:29;99915.88;;;11.59;44.43
62011;BME280;47967;51.756;10.174;2023-04-26T11:58:32;99907.09;;;12.12;43.53
62011;BME280;47967;51.756;10.174;2023-04-26T12:02:34;99909.59;;;12.34;44.32
62011;BME280;47967;51.756;10.174;2023-04-26T12:06:41;99935.97;;;11.43;43.16
62011;BME280;47967;51.756;10.174;2023-04-26T12:10:45;99938.75;;;10.08;43.94
62011;BME280;47967;51.756;10.174;2023-04-26T12:14:48;99928.97;;;10.44;46.17
62011;BME280;47967;51.756;10.174;2023-04-26T12:18:51;99935.09;;;9.72;45.62
62011;BME280;47967;51.756;10.174;2023-04-26T12:23:01;99938.38;;;9.53;45.17
62011;BME280;47967;51.756;10.174;2023-04-26T12:27:05;99929.03;;;9.49;45.75
62011;BME280;47967;51.756;10.174;2023-04-26T12:31:08;99925.94;;;10.10;44.44
62011;BME280;47967;51.756;10.174;2023-04-26T12:35:11;99928.88;;;10.59;44.71
62011;BME280;47967;51.756;10.174;2023-04-26T12:39:14;99926.31;;;10.50;44.17
62011;BME280;47967;51.756;10.174;2023-04-26T12:43:18;99913.97;;;11.46;43.82
62011;BME280;47967;51.756;10.174;2023-04-26T12:47:24;99917.91;;;11.44;42.08
62011;BME280;47967;51.756;10.174;2023-04-26T12:51:27;99920.88;;;11.14;43.69
62011;BME280;47967;51.756;10.174;2023-04-26T12:55:29;99930.72;;;10.86;45.75
62011;BME280;47967;51.756;10.174;2023-04-26T12:59:35;99940.16;;;9.82;45.64
62011;BME280;47967;51.756;10.174;2023-04-26T13:03:38;99935.16;;;9.79;46.23
62011;BME280;47967;51.756;10.174;2023-04-26T13:07:42;99929.84;;;10.79;44.99
62011;BME280;47967;51.756;10.174;2023-04-26T13:11:44;99927.13;;;10.79;44.27
62011;BME280;47967;51.756;10.174;2023-04-26T13:15:48;99916.41;;;11.34;45.03
62011;BME280;47967;51.756;10.174;2023-04-26T13:19:51;99912.53;;;11.50;44.19
62011;BME280;47967;51.756;10.174;2023-04-26T13:23:54;99913.78;;;11.48;44.25
62011;BME280;47967;51.756;10.174;2023-04-26T13:27:56;99935.16;;;11.43;45.33
62011;BME280;47967;51.756;10.174;2023-04-26T13:32:00;99920.25;;;11.12;45.21
62011;BME280;47967;51.756;10.174;2023-04-26T13:36:04;99939.59;;;9.87;45.60
62011;BME280;47967;51.756;10.174;2023-04-26T13:40:07;99939.91;;;9.40;47.47
62011;BME280;47967;51.756;10.174;2023-04-26T13:44:11;99947.97;;;9.10;47.12
62011;BME280;47967;51.756;10.174;2023-04-26T13:48:15;99938.31;;;9.31;47.39
62011;BME280;47967;51.756;10.174;2023-04-26T13:52:18;99951.25;;;9.21;48.44
62011;BME280;47967;51.756;10.174;2023-04-26T13:56:22;99946.53;;;9.23;47.93
62011;BME280;47967;51.756;10.174;2023-04-26T14:00:26;99939.38;;;9.67;47.71
62011;BME280;47967;51.756;10.174;2023-04-26T14:04:30;99945.19;;;9.85;47.54
62011;BME280;47967;51.756;10.174;2023-04-26T14:08:33;99944.47;;;10.63;46.03
62011;BME280;47967;51.756;10.174;2023-04-26T14:12:36;99942.44;;;10.72;46.44
62011;BME280;47967;51.756;10.174;2023-04-26T14:16:38;99942.97;;;10.89;44.91
62011;BME280;47967;51.756;10.174;2023-04-26T14:20:42;99946.38;;;10.69;45.55
62011;BME280;47967;51.756;10.174;2023-04-26T14:24:45;99947.88;;;10.79;46.35
62011;BME280;47967;51.756;10.174;2023-04-26T14:28:48;99935.25;;;11.21;46.04
62011;BME280;47967;51.756;10.174;2023-04-26T14:32:51;99945.00;;;10.80;46.16
62011;BME280;47967;51.756;10.174;2023-04-26T14:36:54;99949.69;;;10.43;44.52
62011;BME280;47967;51.756;10.174;2023-04-26T14:41:01;99938.47;;;11.38;43.84
62011;BME280;47967;51.756;10.174;2023-04-26T14:45:05;99948.41;;;11.31;42.02
62011;BME280;47967;51.756;10.174;2023-04-26T14:49:08;99940.19;;;11.11;41.37
62011;BME280;47967;51.756;10.174;2023-04-26T14:53:12;99934.97;;;11.02;43.47
62011;BME280;47967;51.756;10.174;2023-04-26T14:57:14;99932.66;;;10.99;42.37
62011;BME280;47967;51.756;10.174;2023-04-26T15:01:17;99936.72;;;10.88;42.79
62011;BME280;47967;51.756;10.174;2023-04-26T15:05:19;99936.28;;;10.50;44.03
62011;BME280;47967;51.756;10.174;2023-04-26T15:09:25;99932.59;;;10.36;43.45
62011;BME280;47967;51.756;10.174;2023-04-26T15:13:31;99929.56;;;10.74;43.97
62011;BME280;47967;51.756;10.174;2023-04-26T15:17:33;99937.19;;;10.64;43.86
62011;BME280;47967;51.756;10.174;2023-04-26T15:21:36;99936.59;;;9.97;44.46
62011;BME280;47967;51.756;10.174;2023-04-26T15:25:40;99927.44;;;9.76;45.27
62011;BME280;47967;51.756;10.174;2023-04-26T15:29:42;99925.00;;;9.81;46.22
62011;BME280;47967;51.756;10.174;2023-04-26T15:33:45;99917.84;;;10.10;46.41
62011;BME280;47967;51.756;10.174;2023-04-26T15:37:48;99912.16;;;10.48;46.03
62011;BME280;47967;51.756;10.174;2023-04-26T15:41:55;99922.38;;;10.31;45.34
62011;BME280;47967;51.756;10.174;2023-04-26T15:45:58;99923.03;;;9.68;47.24
62011;BME280;47967;51.756;10.174;2023-04-26T15:50:01;99926.00;;;9.95;46.67
62011;BME280;47967;51.756;10.174;2023-04-26T15:54:05;99917.56;;;10.48;46.53
62011;BME280;47967;51.756;10.174;2023-04-26T15:58:09;99926.25;;;10.44;46.23
62011;BME280;47967;51.756;10.174;2023-04-26T16:02:12;99925.91;;;10.32;47.40
62011;BME280;47967;51.756;10.174;2023-04-26T16:06:15;99929.00;;;10.50;48.54
62011;BME280;47967;51.756;10.174;2023-04-26T16:10:17;99924.19;;;10.24;46.32
62011;BME280;47967;51.756;10.174;2023-04-26T16:14:21;99924.22;;;10.02;46.52
62011;BME280;47967;51.756;10.174;2023-04-26T16:18:24;99923.69;;;9.55;45.58
62011;BME280;47967;51.756;10.174;2023-04-26T16:22:26;99935.34;;;9.41;46.22
62011;BME280;47967;51.756;10.174;2023-04-26T16:26:29;99931.19;;;9.23;46.98
62011;BME280;47967;51.756;10.174;2023-04-26T16:30:33;99923.34;;;9.43;46.70
62011;BME280;47967;51.756;10.174;2023-04-26T16:34:35;99925.47;;;9.48;47.19
62011;BME280;47967;51.756;10.174;2023-04-26T16:38:38;99924.81;;;10.26;46.90
62011;BME280;47967;51.756;10.174;2023-04-26T16:42:41;99912.47;;;10.60;45.18
62011;BME280;47967;51.756;10.174;2023-04-26T16:46:46;99911.09;;;11.06;43.61
62011;BME280;47967;51.756;10.174;2023-04-26T16:50:48;99913.28;;;11.93;42.45
62011;BME280;47967;51.756;10.174;2023-04-26T16:54:51;99909.56;;;12.14;41.39
62011;BME280;47967;51.756;10.174;2023-04-26T16:58:54;99912.41;;;13.06;39.71
62011;BME280;47967;51.756;10.174;2023-04-26T17:02:58;99906.44;;;13.82;38.84
62011;BME280;47967;51.756;10.174;2023-04-26T17:07:00;99911.69;;;13.31;38.11
62011;BME280;47967;51.756;10.174;2023-04-26T17:11:03;99915.75;;;12.95;39.92
62011;BME280;47967;51.756;10.174;2023-04-26T17:15:06;99921.53;;;13.12;39.05
62011;BME280;47967;51.756;10.174;2023-04-26T17:19:11;99922.22;;;12.87;39.42
62011;BME280;47967;51.756;10.174;2023-04-26T17:23:13;99925.16;;;12.12;41.53
62011;BME280;47967;51.756;10.174;2023-04-26T17:27:16;99922.47;;;12.59;42.40
62011;BME280;47967;51.756;10.174;2023-04-26T17:31:19;99917.16;;;13.18;40.91
62011;BME280;47967;51.756;10.174;2023-04-26T17:35:23;99919.41;;;13.34;40.30
62011;BME280;47967;51.756;10.174;2023-04-26T17:39:26;99920.94;;;13.03;39.38
62011;BME280;47967;51.756;10.174;2023-04-26T17:43:29;99923.50;;;12.51;42.32
62011;BME280;47967;51.756;10.174;2023-04-26T17:47:31;99925.19;;;12.25;41.48
62011;BME280;47967;51.756;10.174;2023-04-26T17:51:35;99920.63;;;12.26;43.60
62011;BME280;47967;51.756;10.174;2023-04-26T17:55:38;99928.22;;;11.82;43.57
62011;BME280;47967;51.756;10.174;2023-04-26T17:59:41;99935.16;;;11.43;44.97
62011;BME280;47967;51.756;10.174;2023-04-26T18:03:43;99934.50;;;10.64;45.70
62011;BME280;47967;51.756;10.174;2023-04-26T18:07:47;99937.94;;;10.07;46.31
62011;BME280;47967;51.756;10.174;2023-04-26T18:11:50;99945.84;;;9.72;46.62
62011;BME280;47967;51.756;10.174;2023-04-26T18:15:53;99943.06;;;9.44;47.54
62011;BME280;47967;51.756;10.174;2023-04-26T18:19:56;99945.38;;;9.32;47.41
62011;BME280;47967;51.756;10.174;2023-04-26T18:24:00;99947.53;;;9.07;48.56
62011;BME280;47967;51.756;10.174;2023-04-26T18:28:02;99959.22;;;8.99;48.86
62011;BME280;47967;51.756;10.174;2023-04-26T18:32:05;99956.53;;;8.99;49.46
62011;BME280;47967;51.756;10.174;2023-04-26T18:36:08;99963.06;;;8.43;53.00
62011;BME280;47967;51.756;10.174;2023-04-26T18:40:12;99969.19;;;8.37;53.94
62011;BME280;47967;51.756;10.174;2023-04-26T18:44:15;99967.47;;;7.98;54.77
62011;BME280;47967;51.756;10.174;2023-04-26T18:48:17;99968.72;;;8.10;55.69
62011;BME280;47967;51.756;10.174;2023-04-26T18:52:20;99970.38;;;8.11;57.17
62011;BME280;47967;51.756;10.174;2023-04-26T18:56:24;99974.16;;;7.79;57.42
62011;BME280;47967;51.756;10.174;2023-04-26T19:00:26;99967.91;;;7.47;59.63
62011;BME280;47967;51.756;10.174;2023-04-26T19:04:29;99975.88;;;7.24;61.84
62011;BME280;47967;51.756;10.174;2023-04-26T19:08:31;99972.19;;;7.25;62.99
62011;BME280;47967;51.756;10.174;2023-04-26T19:12:35;99979.75;;;7.21;64.27
62011;BME280;47967;51.756;10.174;2023-04-26T19:16:38;99982.63;;;7.19;65.11
62011;BME280;47967;51.756;10.174;2023-04-26T19:20:40;99990.34;;;7.14;64.45
62011;BME280;47967;51.756;10.174;2023-04-26T19:24:47;99994.03;;;7.13;64.07
62011;BME280;47967;51.756;10.174;2023-04-26T19:28:51;99998.09;;;7.01;64.67
62011;BME280;47967;51.756;10.174;2023-04-26T19:32:55;99997.09;;;6.94;64.55
62011;BME280;47967;51.756;10.174;2023-04-26T19:36:58;100006.84;;;6.78;63.99
62011;BME280;47967;51.756;10.174;2023-04-26T19:41:01;100002.84;;;6.66;65.25
62011;BME280;47967;51.756;10.174;2023-04-26T19:45:06;99999.97;;;6.67;65.95
62011;BME280;47967;51.756;10.174;2023-04-26T19:49:08;100009.38;;;6.71;65.94
62011;BME280;47967;51.756;10.174;2023-04-26T19:53:12;100014.06;;;6.78;65.36
62011;BME280;47967;51.756;10.174;2023-04-26T19:57:15;100015.88;;;6.77;65.52
62011;BME280;47967;51.756;10.174;2023-04-26T20:01:19;100020.44;;;6.68;67.02
62011;BME280;47967;51.756;10.174;2023-04-26T20:05:22;100019.59;;;6.43;68.62
62011;BME280;47967;51.756;10.174;2023-04-26T20:09:24;100024.44;;;6.23;68.97
62011;BME280;47967;51.756;10.174;2023-04-26T20:13:27;100019.41;;;6.20;68.42
62011;BME280;47967;51.756;10.174;2023-04-26T20:17:31;100024.25;;;6.24;67.40
62011;BME280;47967;51.756;10.174;2023-04-26T20:21:33;100027.44;;;6.20;67.05
62011;BME280;47967;51.756;10.174;2023-04-26T20:25:36;100025.78;;;6.27;66.44
62011;BME280;47967;51.756;10.174;2023-04-26T20:29:38;100024.06;;;6.09;66.59
62011;BME280;47967;51.756;10.174;2023-04-26T20:33:42;100027.63;;;5.75;67.72
62011;BME280;47967;51.756;10.174;2023-04-26T20:37:45;100015.22;;;5.66;68.35
62011;BME280;47967;51.756;10.174;2023-04-26T20:41:47;100026.91;;;5.57;68.62
62011;BME280;47967;51.756;10.174;2023-04-26T20:45:50;100027.56;;;5.59;69.17
62011;BME280;47967;51.756;10.174;2023-04-26T20:49:54;100023.78;;;5.35;70.71
62011;BME280;47967;51.756;10.174;2023-04-26T20:53:56;100025.72;;;5.17;71.20
62011;BME280;47967;51.756;10.174;2023-04-26T20:57:59;100022.63;;;5.03;72.13
